Terminal Aerodrome Forecast
Issued by NWS

Home | Current Version | Previous Version | Text Only | Print | Product List | Glossary On
Versions: 1 2 3 4 5 6 7 8 9 10 11 12 13 14 15 16 17
000
FTUS43 KFGF 290520
TAFBJI
TAF
KBJI 290520Z 2906/3006 31010KT P6SM VCSH BKN020
     FM291800 30014G24KT P6SM OVC015
     FM291900 30014KT P6SM OVC020=

USA.gov is the U.S. government's official web portal to all federal, state and local government web resources and services.